Logo AVAMET
Benvolgut visitant, si us plau, ingressa Recuperar contrasenya

Teulada Sant Jaume

Dades diàries. Acumulats / Últims 30 dies disponibles

Data Temperatura (°C) Humitat rel. (%) Pressió rel. (hPa) Vent (km/h) Precipitació
Mínima Mitjana Màxima Amplitud
tèrmica
Mínima Mitjana Màxima Mínima Mitjana Màxima Predom. Mitjana Ràfega
màxima
Total
(mm)
Índex-n
Mínima Mitjana Màxima Mínima Mitjana Màxima n
0 a 1
P0 max
mm 5'
Dades mensuals acumulades fins l'últim dia disponible
12/2019 9,0 9,7 10,7 11,4 12,1 13,9 17,6 8,6 69 93 98 1.000 1.007 1.013   10,9 51,1 143,0
Dades anuals acumulades fins l'últim dia disponible
2019 2,4 13,6 25,3 17,5 10,6 22,1 36,0 33,6 20 70 98 989 1.013 1.042   9,3 84,9 775,3
Últims 30 dies disponibles
04-12-2019 9,1     10,4     12,5 3,4 86 97 98 1.000 1.002 1.005 N 15,7 47,2 36,3 0,61 3,00
03-12-2019 9,0     10,4     12,1 3,1 87 96 98 1.005 1.010 1.013 NNO 19,7 51,1 70,9 0,37 1,80
02-12-2019 9,9     11,6     13,3 3,4 82 94 98 1.007 1.010 1.013 ONO 6,9 24,4 35,8 0,54 2,40
01-12-2019 10,7     13,2     17,6 6,9 69 86 98 1.007 1.009 1.011 SO 1,4 9,1 0,0
30-11-2019 11,3     14,7     18,9 7,6 63 77 95 1.011 1.015 1.042 OSO 4,7 31,3 0,0
29-11-2019 11,5     16,1     21,9 10,4 53 64 73 1.012 1.015 1.017 O 4,5 21,3 0,0
28-11-2019 10,9     14,9     20,8 9,9 51 61 76 1.009 1.011 1.014 O 5,3 28,1 0,0
27-11-2019 13,2     17,1     21,5 8,3 50 62 85 1.005 1.007 1.010 ONO 7,1 31,6 0,0
26-11-2019 12,5     15,4     19,1 6,6 56 73 91 1.006 1.008 1.011 OSO 4,2 14,1 0,0
25-11-2019 11,2     15,5     19,8 8,6 51 61 67 1.008 1.009 1.011 NO 8,8 30,5 0,0
24-11-2019 11,3     13,0     15,9 4,6 46 48 50 1.002 1.006 1.009 NO 19,6 56,4 0,0
23-11-2019 11,8     13,4     16,0 4,2 49 61 98 989 994 1.002 ONO 16,0 52,2 0,0
22-11-2019 10,6     12,5     13,8 3,2 69 83 98 991 998 1.004 SO 9,9 46,1 7,0
21-11-2019 7,2     11,7     16,1 8,9 61 73 83 1.004 1.005 1.006 SO 5,0 17,6 0,0
20-11-2019 6,6     10,7     14,8 8,2 46 61 80 1.005 1.007 1.010 O 5,2 20,9 1,5
19-11-2019 5,8     9,3     13,5 7,7 54 59 67 1.010 1.011 1.013 O 5,2 16,8 0,0
18-11-2019 7,1     10,4     13,4 6,3 59 68 79 1.002 1.006 1.011 NNO 10,1 30,2 4,7
17-11-2019 8,0     11,6     15,6 7,6 43 50 71 1.005 1.008 1.010 O 7,8 28,3 2,6
16-11-2019 7,1     9,8     13,1 6,0 49 52 56 1.001 1.006 1.010 NNO 12,1 27,0 0,0
15-11-2019 7,4     10,6     14,1 6,7 46 51 56 997 999 1.002 NO 9,1 27,0 0,0
14-11-2019 9,3     12,9     15,3 6,0 50 69 90 995 999 1.007 O 9,9 31,6 0,0
13-11-2019 10,7     13,4     19,8 9,1 45 69 85 1.001 1.004 1.008 O 7,7 44,2 6,2 0,13 0,60
12-11-2019 9,7     12,7     17,3 7,6 40 47 51 1.005 1.007 1.008 NO 12,0 31,3 0,0
11-11-2019 8,0     11,9     16,2 8,2 40 44 52 1.006 1.008 1.009 NNO 11,4 31,3 0,0
10-11-2019 10,3     12,5     15,2 4,9 40 49 66 1.005 1.007 1.009 NNO 18,8 47,2 0,0
09-11-2019 11,0     14,0     18,3 7,3 34 39 63 1.009 1.012 1.015 NO 14,6 51,1 0,0
08-11-2019 10,0     12,7     15,9 5,9 36 42 50 1.004 1.008 1.012 NNO 18,3 47,4 0,0
07-11-2019 11,2     15,2     19,9 8,7 36 52 67 1.004 1.006 1.009 O 6,8 24,4 0,0
06-11-2019 12,7     15,1     19,6 6,9 41 48 52 1.007 1.008 1.009 NO 13,5 39,2 0,0
05-11-2019 14,3     16,6     19,1 4,8 44 50 57 1.003 1.005 1.008 NO 14,3 44,6 0,0
Últims 13 mesos disponibles
11/2019 5,8 11,0 20,0 14,2 13,1 18,1 25,7 19,9 39 58 83 994 1.007 1.015 O 9,9 56,4 22,0
10/2019 10,1 15,4 18,9 18,8 15,5 23,1 26,7 16,6 48 77 96 1.004 1.013 1.018 OSO 6,2 84,9 79,2
09/2019 12,8 18,6 22,3 22,0 22,1 26,2 29,5 16,7 65 85 94 1.007 1.015 1.020 OSO 9,0 54,6 152,0
08/2019 17,6 20,6 24,2 24,8 26,5 29,8 36,0 18,4 51 78 89 1.008 1.014 1.017 SO 9,0 42,4 56,9
07/2019 18,6 20,8 25,3 25,5 27,8 30,7 34,5 15,9 39 69 84 1.004 1.012 1.019 SO 8,4 52,5 1,5
06/2019 11,4 16,4 22,2 21,4 22,3 26,6 35,3 23,9 41 69 86 1.006 1.012 1.019 SSO 10,7 43,1 0,5
05/2019 8,2 13,0 19,8 17,0 17,8 21,5 26,4 18,2 55 73 91 1.002 1.012 1.022 SSO 9,4 46,1 15,9
04/2019 6,6 10,4 12,6 13,9 12,7 18,1 25,6 19,0 37 73 98 996 1.009 1.022 SO 11,2 54,6 257,8
03/2019 6,0 8,6 12,0 12,8 12,4 17,8 26,8 20,8 40 63 94 1.010 1.020 1.026 S 10,1 45,0 41,4
02/2019 3,6 6,9 11,1 11,0 11,3 16,2 23,2 19,6 29 66 87 992 1.020 1.029 SO 9,0 72,9 1,5
01/2019 2,4 6,9 10,9 10,3 10,6 15,0 19,4 17,0 35 60 82 999 1.014 1.026 OSO 9,3 62,2 3,6
12/2018 6,2 8,9 11,7 12,3 11,2 16,8 21,6 15,4 49 73 95 1.004 1.021 1.026 SSO 6,2 67,9 29,4
11/2018 8,5 11,2 15,1 13,9 13,0 17,8 22,3 13,8 49 73 98 996 1.011 1.019 SO 9,7 53,3 145,4
Tots els anys disponibles
2018 1,9 13,3 24,3 17,0 7,0 21,6 35,4 33,5 33 71 98 57 986 1.028 SSO 9,0 84,2 580,5
2017 -0,4 13,4 25,4 17,3 6,6 22,0 35,8 36,2 31 70 96 971 1.015 1.031 S 9,0 87,0 647,4
2016 2,8 13,6 25,8 17,8 11,2 22,0 38,4 35,6 24 68 98 981 1.017 1.035 57,0 401,7
Temperatura (°C)
Humitat relativa (%)
Velocitat del vent i ràfega màxima (km/h)
Direcció del vent (°)
Pressió (hPa)
Precipitació (mm)
Nota sobre les dades: s'avisa a l'usuari de la provisionalitat i no oficialitat d'aquestes dades
Logo AVAMET blanc
Web allotjada a Sollutia
Llicència de Creative CommonsLa web d'AVAMET i els seus continguts estan subjectes a una llicència de
Reconeixement - No Comercial - Compartir igual
Últimes estacions: Aielo de Malferit - Centre (Soci), Faura (Inforatge), Benifairó de les Valls (Inforatge), Xàbia - Les Valls (Soci), Xàbia - Alt de la Granadella (Soci), Villena - Sierra de Salinas (Soci), Sueca - Centre (Inforatge) - - -